createdAt,value
2017-05-30T00:01:52.604Z,21.08
2017-05-30T00:04:21.719Z,20.06
2017-05-30T00:06:50.813Z,19.84
2017-05-30T00:09:20.220Z,19.18
2017-05-30T00:11:49.315Z,19.34
2017-05-30T00:14:18.412Z,23.92
2017-05-30T00:16:47.895Z,19.86
2017-05-30T00:19:16.989Z,22.52
2017-05-30T00:21:46.083Z,19.34
2017-05-30T00:24:15.193Z,19.52
2017-05-30T00:26:44.280Z,20.32
2017-05-30T00:29:13.783Z,19.08
2017-05-30T00:31:42.885Z,22.16
2017-05-30T00:34:11.968Z,24.02
2017-05-30T00:36:41.272Z,23.54
2017-05-30T00:39:10.359Z,21.26
2017-05-30T00:41:39.467Z,23.82
2017-05-30T00:44:08.550Z,24.06
2017-05-30T00:46:38.128Z,22.52
2017-05-30T00:49:07.208Z,22.14
2017-05-30T00:51:36.307Z,22.04
2017-05-30T00:54:05.863Z,21.94
2017-05-30T00:56:34.967Z,22.90
2017-05-30T00:59:04.047Z,22.36
2017-05-30T01:01:33.159Z,22.04
2017-05-30T01:04:02.240Z,24.76
2017-05-30T01:06:31.444Z,21.82
2017-05-30T01:09:00.516Z,24.28
2017-05-30T01:11:29.603Z,23.32
2017-05-30T01:13:58.819Z,22.82
2017-05-30T01:16:27.903Z,25.42
2017-05-30T01:18:57.048Z,23.76
2017-05-30T01:21:26.147Z,26.14
2017-05-30T01:23:55.238Z,26.04
2017-05-30T01:26:24.470Z,26.26
2017-05-30T01:28:53.551Z,24.94
2017-05-30T01:31:23.182Z,26.56
2017-05-30T01:33:52.422Z,27.08
2017-05-30T01:36:21.523Z,25.12
2017-05-30T01:38:50.616Z,26.20
2017-05-30T01:41:19.847Z,25.82
2017-05-30T01:43:48.932Z,25.98
2017-05-30T01:46:18.039Z,31.56
2017-05-30T01:48:47.151Z,27.14
2017-05-30T01:51:16.241Z,29.56
2017-05-30T01:53:45.352Z,26.72
2017-05-30T01:56:14.463Z,30.48
2017-05-30T01:58:43.917Z,27.54
2017-05-30T02:01:12.976Z,27.74
2017-05-30T02:03:42.065Z,27.54
2017-05-30T02:06:11.174Z,29.10
2017-05-30T02:08:40.295Z,28.42
2017-05-30T02:11:09.642Z,26.94
2017-05-30T02:13:38.731Z,28.10
2017-05-30T02:16:07.816Z,31.60
2017-05-30T02:18:37.030Z,30.04
2017-05-30T02:21:06.127Z,29.48
2017-05-30T02:23:35.202Z,29.04
2017-05-30T02:26:04.328Z,30.78
2017-05-30T02:28:33.435Z,28.52
2017-05-30T02:31:02.652Z,28.38
2017-05-30T02:33:31.757Z,29.92
2017-05-30T02:36:00.838Z,28.52
2017-05-30T02:38:30.043Z,27.08
2017-05-30T02:40:59.157Z,29.02
2017-05-30T02:43:28.245Z,28.86
2017-05-30T02:45:57.369Z,25.38
2017-05-30T02:48:26.471Z,26.00
2017-05-30T02:50:55.683Z,28.66
2017-05-30T02:53:24.780Z,27.54
2017-05-30T02:55:53.856Z,28.36
2017-05-30T02:58:22.967Z,27.76
2017-05-30T03:00:52.075Z,27.62
2017-05-30T03:03:21.360Z,28.24
2017-05-30T03:05:50.418Z,28.56
2017-05-30T03:08:19.530Z,27.74
2017-05-30T03:10:48.619Z,32.60
2017-05-30T03:13:17.695Z,26.92
2017-05-30T03:15:46.799Z,29.52
2017-05-30T03:18:15.892Z,30.04
2017-05-30T03:20:45.105Z,28.84
2017-05-30T03:23:14.187Z,26.26
2017-05-30T03:25:43.275Z,27.16
2017-05-30T03:28:12.395Z,25.76
2017-05-30T03:30:41.491Z,26.64
2017-05-30T03:33:10.692Z,29.16
2017-05-30T03:35:39.763Z,26.58
2017-05-30T03:38:08.850Z,28.28
2017-05-30T03:40:37.965Z,28.94
2017-05-30T03:43:07.050Z,28.90
2017-05-30T03:45:36.487Z,26.10
2017-05-30T03:48:05.794Z,25.56
2017-05-30T03:50:34.909Z,26.42
2017-05-30T03:53:04.019Z,28.98
2017-05-30T03:55:33.100Z,24.44
2017-05-30T03:58:02.315Z,27.40
2017-05-30T04:00:31.402Z,26.90
2017-05-30T04:03:00.494Z,27.26
2017-05-30T04:05:29.706Z,31.44
2017-05-30T04:07:58.803Z,30.68
2017-05-30T04:10:27.890Z,32.92
2017-05-30T04:12:56.992Z,30.64
2017-05-30T04:15:26.096Z,33.46
2017-05-30T04:17:55.207Z,32.16
2017-05-30T04:20:24.304Z,30.06
2017-05-30T04:22:53.541Z,31.72
2017-05-30T04:25:22.614Z,29.18
2017-05-30T04:27:51.709Z,30.70
2017-05-30T04:30:20.955Z,30.10
2017-05-30T04:32:50.038Z,28.04
2017-05-30T04:35:19.128Z,29.64
2017-05-30T04:37:48.482Z,28.62
2017-05-30T04:40:17.559Z,30.80
2017-05-30T04:42:46.652Z,31.66
2017-05-30T04:45:15.747Z,32.38
2017-05-30T04:47:44.059Z,33.32
2017-05-30T04:50:13.182Z,28.40
2017-05-30T04:52:42.292Z,29.84
2017-05-30T04:55:11.496Z,28.98
2017-05-30T04:57:40.577Z,28.52
2017-05-30T05:00:09.668Z,30.18
2017-05-30T05:02:39.139Z,33.42
2017-05-30T05:05:08.221Z,29.76
2017-05-30T05:07:37.299Z,33.44
2017-05-30T05:10:06.737Z,35.18
2017-05-30T05:12:35.820Z,37.20
2017-05-30T05:15:04.911Z,35.54
2017-05-30T05:20:09.449Z,36.48
2017-05-30T05:22:39.020Z,36.68
2017-05-30T05:25:07.363Z,36.28
2017-05-30T05:27:36.448Z,37.62
2017-05-30T05:30:05.559Z,39.20
2017-05-30T05:32:34.663Z,40.46
2017-05-30T05:35:03.915Z,38.30
2017-05-30T05:37:33.037Z,42.34
2017-05-30T05:40:02.144Z,39.78
2017-05-30T05:42:31.245Z,38.18
2017-05-30T05:45:00.327Z,39.46
2017-05-30T05:47:29.595Z,37.42
2017-05-30T05:49:58.832Z,38.70
2017-05-30T05:52:27.929Z,36.90
2017-05-30T05:54:57.041Z,39.22
2017-05-30T05:57:26.135Z,38.80
2017-05-30T05:59:55.263Z,41.28
2017-05-30T06:02:24.351Z,37.76
2017-05-30T06:04:54.591Z,35.88
2017-05-30T06:07:23.704Z,36.78
2017-05-30T06:09:52.819Z,35.02
2017-05-30T06:12:21.941Z,36.50
2017-05-30T06:14:50.272Z,34.60
2017-05-30T06:17:19.563Z,33.42
2017-05-30T06:19:48.712Z,34.20
2017-05-30T06:22:17.839Z,34.04
2017-05-30T06:24:46.950Z,34.34
2017-05-30T06:27:16.068Z,35.28
2017-05-30T06:29:44.551Z,38.34
2017-05-30T06:32:13.677Z,31.78
2017-05-30T06:34:42.056Z,35.68
2017-05-30T06:37:11.325Z,33.72
2017-05-30T06:39:40.496Z,32.16
2017-05-30T06:42:09.952Z,32.18
2017-05-30T06:44:38.478Z,32.82
2017-05-30T06:47:07.607Z,35.26
2017-05-30T06:49:36.699Z,34.40
2017-05-30T06:52:05.839Z,33.90
2017-05-30T06:54:34.935Z,37.06
2017-05-30T06:57:04.576Z,35.10
2017-05-30T06:59:33.779Z,42.16
2017-05-30T07:02:02.871Z,39.72
2017-05-30T07:04:32.245Z,39.20
2017-05-30T07:07:01.382Z,36.64
2017-05-30T07:09:30.569Z,43.70
2017-05-30T07:11:59.671Z,41.34
2017-05-30T07:14:28.887Z,42.92
2017-05-30T07:16:57.995Z,44.50
2017-05-30T07:19:27.115Z,38.72
2017-05-30T07:21:56.242Z,44.62
2017-05-30T07:24:25.338Z,40.88
2017-05-30T07:26:54.521Z,38.92
2017-05-30T07:29:23.614Z,43.16
2017-05-30T07:31:53.042Z,40.24
2017-05-30T07:34:22.134Z,44.38
2017-05-30T07:36:51.296Z,43.96
2017-05-30T07:39:19.641Z,39.36
2017-05-30T07:41:48.759Z,37.08
2017-05-30T07:44:17.976Z,36.20
2017-05-30T07:46:47.126Z,33.46
2017-05-30T07:49:16.202Z,34.90
2017-05-30T07:51:45.333Z,36.50
2017-05-30T07:54:14.599Z,34.46
2017-05-30T07:56:44.061Z,34.88
2017-05-30T07:59:13.271Z,37.02
2017-05-30T08:01:42.350Z,43.02
2017-05-30T08:04:11.566Z,56.28
2017-05-30T08:06:40.688Z,80.48
2017-05-30T08:09:10.256Z,73.04
2017-05-30T08:11:40.122Z,62.34
2017-05-30T08:14:09.236Z,73.84
2017-05-30T08:16:38.443Z,59.18
2017-05-30T08:19:07.533Z,66.68
2017-05-30T08:21:36.635Z,52.70
2017-05-30T08:24:06.267Z,55.14
2017-05-30T08:26:35.555Z,45.84
2017-05-30T08:29:04.688Z,62.68
2017-05-30T08:31:33.899Z,53.42
2017-05-30T08:34:02.998Z,52.60
2017-05-30T08:36:32.079Z,73.60
2017-05-30T08:39:01.211Z,61.96
2017-05-30T08:41:30.327Z,70.30
2017-05-30T08:43:59.841Z,58.12
2017-05-30T08:46:28.922Z,72.66
2017-05-30T08:48:58.024Z,75.02
2017-05-30T08:51:27.127Z,80.36
2017-05-30T08:53:56.207Z,67.82
2017-05-30T08:56:25.464Z,80.16
2017-05-30T08:58:54.551Z,71.32
2017-05-30T09:01:23.659Z,72.36
2017-05-30T09:03:52.907Z,42.18
2017-05-30T09:06:22.003Z,68.64
2017-05-30T09:08:51.352Z,55.90
2017-05-30T09:11:20.570Z,80.78
2017-05-30T09:13:49.659Z,72.30
2017-05-30T09:16:18.768Z,55.38
2017-05-30T09:18:48.191Z,52.20
2017-05-30T09:21:17.277Z,51.08
2017-05-30T09:23:46.362Z,63.10
2017-05-30T09:26:15.478Z,76.54
2017-05-30T09:28:44.574Z,73.28
2017-05-30T09:31:13.835Z,81.42
2017-05-30T09:33:42.916Z,77.06
2017-05-30T09:36:12.020Z,74.70
2017-05-30T09:38:41.162Z,72.58
2017-05-30T09:41:10.250Z,71.74
2017-05-30T09:43:39.327Z,54.00
2017-05-30T09:46:08.427Z,61.68
2017-05-30T09:48:37.655Z,57.62
2017-05-30T09:51:06.763Z,63.50
2017-05-30T09:53:35.843Z,61.12
2017-05-30T09:56:05.078Z,71.90
2017-05-30T09:58:34.162Z,84.48
2017-05-30T10:01:03.240Z,60.22
2017-05-30T10:03:32.378Z,56.78
2017-05-30T10:06:01.458Z,54.16
2017-05-30T10:08:30.555Z,60.42
2017-05-30T10:10:59.695Z,49.64
2017-05-30T10:13:28.775Z,58.02
2017-05-30T10:15:57.862Z,58.56
2017-05-30T10:18:28.322Z,62.76
2017-05-30T10:20:57.439Z,49.68
2017-05-30T10:23:26.527Z,51.74
2017-05-30T10:25:55.666Z,45.70
2017-05-30T10:28:24.766Z,55.68
2017-05-30T10:30:54.510Z,48.08
2017-05-30T10:33:23.599Z,53.36
2017-05-30T10:35:52.691Z,41.46
2017-05-30T10:38:21.909Z,45.56
2017-05-30T10:40:50.987Z,50.60
2017-05-30T10:43:20.064Z,45.10
2017-05-30T10:45:49.562Z,47.38
2017-05-30T10:48:18.659Z,47.92
2017-05-30T10:50:47.762Z,43.76
2017-05-30T10:53:16.862Z,48.38
2017-05-30T10:55:45.947Z,46.74
2017-05-30T10:58:15.204Z,58.76
2017-05-30T11:00:44.286Z,41.08
2017-05-30T11:03:13.404Z,43.72
2017-05-30T11:05:42.526Z,38.32
2017-05-30T11:08:11.610Z,40.28
2017-05-30T11:10:40.848Z,41.90
2017-05-30T11:13:09.928Z,38.00
2017-05-30T11:15:39.031Z,37.32
2017-05-30T11:18:08.151Z,42.52
2017-05-30T11:20:37.262Z,32.52
2017-05-30T11:23:06.743Z,35.60
2017-05-30T11:25:35.818Z,28.94
2017-05-30T11:28:04.913Z,26.90
2017-05-30T11:30:34.309Z,27.44
2017-05-30T11:33:03.394Z,21.94
2017-05-30T11:35:32.495Z,24.48
2017-05-30T11:38:01.644Z,23.76
2017-05-30T11:40:30.733Z,23.28
2017-05-30T11:42:59.840Z,26.66
2017-05-30T11:45:28.923Z,26.18
2017-05-30T11:47:58.338Z,24.22
2017-05-30T11:50:27.415Z,25.10
2017-05-30T11:52:55.742Z,22.90
2017-05-30T11:55:24.866Z,23.56
2017-05-30T11:57:53.223Z,25.54
2017-05-30T12:00:22.327Z,25.38
2017-05-30T12:02:51.426Z,25.80
2017-05-30T12:05:20.717Z,23.18
2017-05-30T12:07:49.795Z,24.64
2017-05-30T12:10:18.910Z,23.26
2017-05-30T12:12:48.022Z,23.20
2017-05-30T12:15:17.116Z,24.66
2017-05-30T12:17:46.473Z,23.44
2017-05-30T12:20:15.546Z,26.24
2017-05-30T12:22:44.675Z,25.70
2017-05-30T12:25:13.883Z,26.62
2017-05-30T12:27:42.984Z,25.02
2017-05-30T12:30:12.074Z,24.22
2017-05-30T12:32:41.305Z,15.76
2017-05-30T12:35:09.648Z,16.20
2017-05-30T12:37:39.567Z,12.80
2017-05-30T12:40:08.786Z,14.28
2017-05-30T12:42:37.875Z,12.30
2017-05-30T12:45:06.964Z,14.52
2017-05-30T12:47:36.087Z,14.06
2017-05-30T12:50:05.171Z,13.76
2017-05-30T12:52:34.400Z,13.82
2017-05-30T12:55:03.501Z,14.76
2017-05-30T12:57:32.598Z,14.32
2017-05-30T13:00:01.739Z,16.40
2017-05-30T13:02:30.828Z,16.46
2017-05-30T13:05:00.122Z,16.70
2017-05-30T13:07:29.244Z,16.94
2017-05-30T13:09:58.326Z,17.04
2017-05-30T13:12:27.435Z,18.20
2017-05-30T13:14:56.712Z,17.62
2017-05-30T13:17:26.987Z,18.12
2017-05-30T13:19:56.068Z,16.48
2017-05-30T13:22:25.496Z,16.72
2017-05-30T13:24:54.628Z,16.50
2017-05-30T13:27:23.715Z,14.92
2017-05-30T13:29:53.020Z,14.82
2017-05-30T13:32:22.371Z,14.10
2017-05-30T13:34:51.465Z,14.44
2017-05-30T13:37:20.700Z,15.86
2017-05-30T13:39:49.779Z,13.22
2017-05-30T13:42:18.871Z,15.60
2017-05-30T13:44:48.291Z,15.62
2017-05-30T13:47:17.372Z,16.18
2017-05-30T13:49:46.452Z,16.36
2017-05-30T13:52:15.719Z,16.22
2017-05-30T13:54:44.811Z,16.34
2017-05-30T13:57:13.906Z,15.22
2017-05-30T13:59:43.024Z,14.68
2017-05-30T14:02:12.103Z,15.90
2017-05-30T14:04:41.355Z,18.00
2017-05-30T14:07:10.448Z,16.98
2017-05-30T14:09:38.767Z,33.08
2017-05-30T14:12:08.013Z,20.86
2017-05-30T14:14:37.134Z,20.70
2017-05-30T14:17:06.221Z,20.16
2017-05-30T14:19:35.471Z,19.62
2017-05-30T14:22:04.591Z,24.34
2017-05-30T14:27:09.240Z,17.60
2017-05-30T14:29:38.349Z,15.92
2017-05-30T14:32:07.788Z,16.84
2017-05-30T14:34:36.871Z,16.22
2017-05-30T14:37:05.959Z,17.24
2017-05-30T14:39:35.088Z,18.64
2017-05-30T14:42:04.204Z,19.08
2017-05-30T14:44:33.525Z,14.30
2017-05-30T14:47:02.648Z,18.66
2017-05-30T14:49:31.740Z,15.28
2017-05-30T14:52:00.971Z,16.26
2017-05-30T14:54:30.077Z,16.30
2017-05-30T14:56:58.388Z,15.16
2017-05-30T14:59:27.708Z,16.46
2017-05-30T15:01:56.995Z,18.28
2017-05-30T15:04:26.085Z,16.46
2017-05-30T15:06:55.238Z,18.02
2017-05-30T15:09:24.360Z,18.32
2017-05-30T15:11:53.475Z,15.68
2017-05-30T15:14:22.574Z,14.16
2017-05-30T15:16:51.799Z,12.36
2017-05-30T15:19:20.894Z,14.94
2017-05-30T15:21:49.990Z,13.68
2017-05-30T15:24:19.105Z,14.64
2017-05-30T15:26:48.514Z,15.42
2017-05-30T15:29:17.737Z,15.92
2017-05-30T15:31:46.815Z,17.18
2017-05-30T15:34:15.937Z,16.66
2017-05-30T15:36:45.049Z,19.48
2017-05-30T15:39:14.164Z,22.24
2017-05-30T15:41:43.593Z,21.82
2017-05-30T15:44:13.603Z,20.96
2017-05-30T15:46:42.929Z,22.60
2017-05-30T15:49:12.152Z,23.52
2017-05-30T15:51:41.257Z,30.58
2017-05-30T15:54:10.348Z,23.50
2017-05-30T15:56:38.694Z,27.60
2017-05-30T15:59:08.147Z,22.16
2017-05-30T16:01:37.463Z,22.40
2017-05-30T16:04:06.555Z,25.56
2017-05-30T16:06:35.671Z,24.24
2017-05-30T16:09:04.785Z,22.00
2017-05-30T16:11:33.881Z,21.28
2017-05-30T16:14:03.101Z,24.86
2017-05-30T16:16:32.205Z,22.32
2017-05-30T16:19:01.295Z,21.32
2017-05-30T16:21:30.647Z,21.08
2017-05-30T16:23:59.735Z,18.70
2017-05-30T16:26:28.063Z,21.50
2017-05-30T16:28:57.158Z,20.02
2017-05-30T16:31:26.280Z,20.58
2017-05-30T16:33:54.828Z,21.82
2017-05-30T16:36:23.940Z,19.90
2017-05-30T16:38:53.039Z,18.44
2017-05-30T16:41:22.284Z,19.74
2017-05-30T16:43:51.400Z,18.50
2017-05-30T16:46:20.536Z,20.52
2017-05-30T16:48:48.980Z,18.22
2017-05-30T16:51:18.055Z,18.80
2017-05-30T16:53:47.135Z,17.46
2017-05-30T16:56:16.457Z,18.30
2017-05-30T16:58:45.555Z,17.54
2017-05-30T17:01:14.668Z,20.04
2017-05-30T17:03:43.773Z,19.16
2017-05-30T17:06:12.879Z,20.44
2017-05-30T17:08:41.993Z,22.10
2017-05-30T17:11:11.467Z,21.72
2017-05-30T17:13:40.555Z,20.98
2017-05-30T17:16:09.636Z,20.42
2017-05-30T17:18:38.780Z,18.90
2017-05-30T17:21:08.054Z,18.70
2017-05-30T17:23:37.293Z,19.80
2017-05-30T17:26:06.398Z,19.54
2017-05-30T17:28:35.496Z,19.16
2017-05-30T17:31:04.638Z,20.42
2017-05-30T17:33:33.727Z,18.30
2017-05-30T17:36:02.949Z,19.46
2017-05-30T17:38:32.047Z,20.44
2017-05-30T17:41:01.146Z,21.18
2017-05-30T17:43:30.375Z,24.38
2017-05-30T17:45:59.571Z,23.36
2017-05-30T17:48:28.638Z,22.76
2017-05-30T17:50:57.875Z,22.74
2017-05-30T17:53:26.982Z,20.30
2017-05-30T17:55:56.086Z,24.94
2017-05-30T17:58:25.199Z,22.58
2017-05-30T18:00:54.283Z,24.58
2017-05-30T18:03:23.499Z,24.14
2017-05-30T18:05:53.240Z,21.14
2017-05-30T18:08:22.322Z,22.90
2017-05-30T18:10:51.442Z,21.96
2017-05-30T18:13:20.568Z,24.70
2017-05-30T18:15:50.027Z,22.72
2017-05-30T18:18:19.099Z,22.80
2017-05-30T18:20:48.171Z,22.44
2017-05-30T18:23:17.291Z,31.04
2017-05-30T18:25:46.366Z,24.30
2017-05-30T18:28:15.568Z,26.32
2017-05-30T18:30:44.641Z,25.96
2017-05-30T18:33:13.724Z,25.08
2017-05-30T18:35:42.951Z,29.36
2017-05-30T18:38:12.077Z,34.82
2017-05-30T18:40:41.155Z,26.64
2017-05-30T18:43:10.243Z,26.98
2017-05-30T18:45:39.327Z,25.06
2017-05-30T18:48:08.441Z,27.02
2017-05-30T18:50:37.532Z,25.82
2017-05-30T18:53:06.796Z,26.80
2017-05-30T18:55:36.009Z,26.12
2017-05-30T18:58:05.123Z,26.30
2017-05-30T19:00:34.336Z,26.70
2017-05-30T19:03:03.438Z,24.40
2017-05-30T19:05:32.552Z,26.92
2017-05-30T19:08:02.091Z,30.54
2017-05-30T19:10:31.258Z,27.84
2017-05-30T19:13:00.366Z,27.32
2017-05-30T19:15:29.903Z,29.64
2017-05-30T19:17:58.975Z,29.40
2017-05-30T19:20:28.076Z,30.84
2017-05-30T19:22:57.187Z,28.36
2017-05-30T19:25:25.527Z,28.72
2017-05-30T19:27:55.565Z,27.26
2017-05-30T19:30:24.648Z,27.92
2017-05-30T19:32:54.524Z,29.00
2017-05-30T19:35:23.649Z,26.72
2017-05-30T19:37:52.751Z,26.08
2017-05-30T19:40:21.849Z,27.58
2017-05-30T19:42:50.948Z,26.22
2017-05-30T19:45:20.167Z,27.02
2017-05-30T19:47:49.264Z,24.94
2017-05-30T19:50:18.397Z,24.74
2017-05-30T19:52:47.939Z,28.80
2017-05-30T19:55:17.031Z,23.98
2017-05-30T19:57:46.115Z,28.44
2017-05-30T20:00:15.423Z,28.10
2017-05-30T20:02:44.511Z,30.88
2017-05-30T20:05:13.742Z,30.04
2017-05-30T20:07:42.991Z,28.90
2017-05-30T20:10:12.116Z,31.70
2017-05-30T20:12:41.262Z,36.86
2017-05-30T20:15:10.598Z,34.42
2017-05-30T20:17:39.677Z,41.04
2017-05-30T20:20:08.799Z,38.66
2017-05-30T20:22:37.923Z,49.42
2017-05-30T20:25:07.071Z,52.18
2017-05-30T20:27:36.211Z,54.16
2017-05-30T20:30:05.292Z,52.96
2017-05-30T20:32:34.598Z,55.68
2017-05-30T20:35:03.699Z,54.64
2017-05-30T20:37:32.796Z,52.20
2017-05-30T20:40:02.175Z,50.96
2017-05-30T20:42:31.253Z,50.60
2017-05-30T20:45:00.383Z,52.78
2017-05-30T20:47:29.505Z,54.38
2017-05-30T20:49:58.575Z,49.76
2017-05-30T20:52:27.889Z,55.64
2017-05-30T20:54:57.008Z,53.94
2017-05-30T20:57:25.372Z,55.92
2017-05-30T20:59:54.477Z,57.44
2017-05-30T21:02:23.555Z,58.06
2017-05-30T21:04:52.914Z,52.24
2017-05-30T21:07:21.983Z,54.84
2017-05-30T21:09:51.067Z,51.76
2017-05-30T21:12:20.421Z,53.62
2017-05-30T21:14:49.519Z,52.78
2017-05-30T21:17:18.601Z,52.52
2017-05-30T21:19:47.743Z,53.40
2017-05-30T21:22:17.734Z,51.98
2017-05-30T21:24:46.966Z,50.24
2017-05-30T21:27:16.047Z,53.84
2017-05-30T21:29:45.124Z,56.56
2017-05-30T21:32:14.409Z,54.98
2017-05-30T21:34:43.517Z,53.84
2017-05-30T21:37:12.617Z,54.16
2017-05-30T21:39:41.845Z,55.26
2017-05-30T21:42:10.928Z,48.30
2017-05-30T21:44:40.032Z,45.62
2017-05-30T21:47:09.363Z,46.46
2017-05-30T21:49:38.443Z,47.36
2017-05-30T21:52:07.566Z,50.30
2017-05-30T21:54:35.918Z,55.58
2017-05-30T21:57:05.016Z,49.54
2017-05-30T21:59:34.136Z,41.24
2017-05-30T22:02:03.219Z,37.20
2017-05-30T22:04:32.475Z,38.32
2017-05-30T22:07:01.578Z,37.52
2017-05-30T22:09:30.676Z,32.60
2017-05-30T22:12:00.111Z,36.94
2017-05-30T22:14:29.191Z,29.84
2017-05-30T22:16:58.284Z,30.18
2017-05-30T22:19:27.415Z,23.28
2017-05-30T22:21:56.539Z,28.26
2017-05-30T22:24:25.750Z,32.78
2017-05-30T22:26:54.843Z,27.92
2017-05-30T22:29:23.922Z,26.36
2017-05-30T22:31:53.039Z,29.10
2017-05-30T22:34:22.131Z,22.90
2017-05-30T22:36:51.582Z,21.94
2017-05-30T22:39:20.661Z,17.94
2017-05-30T22:41:49.766Z,21.94
2017-05-30T22:44:18.890Z,22.44
2017-05-30T22:46:47.986Z,21.40
2017-05-30T22:49:17.462Z,21.14
2017-05-30T22:51:46.546Z,17.14
2017-05-30T22:54:15.817Z,18.90
2017-05-30T22:56:45.098Z,19.46
2017-05-30T22:59:14.175Z,19.54
2017-05-30T23:01:43.276Z,21.46
2017-05-30T23:04:12.542Z,20.10
2017-05-30T23:06:41.651Z,21.92
2017-05-30T23:09:10.766Z,22.00
2017-05-30T23:11:39.971Z,23.70
2017-05-30T23:14:09.075Z,20.80
2017-05-30T23:16:38.186Z,23.58
2017-05-30T23:19:07.288Z,20.84
2017-05-30T23:21:36.379Z,19.86
2017-05-30T23:24:05.632Z,21.10
2017-05-30T23:26:34.742Z,21.02
2017-05-30T23:29:03.830Z,21.00
2017-05-30T23:31:32.954Z,18.10
2017-05-30T23:34:02.059Z,17.98
2017-05-30T23:36:31.175Z,18.26
2017-05-30T23:39:00.265Z,18.60
2017-05-30T23:41:29.516Z,19.68
2017-05-30T23:43:58.599Z,20.02
2017-05-30T23:46:27.664Z,18.88
2017-05-30T23:48:56.780Z,19.42
2017-05-30T23:51:25.894Z,20.18
2017-05-30T23:53:54.992Z,19.90
2017-05-30T23:56:24.107Z,17.10
2017-05-30T23:58:53.655Z,19.32
